sensor_id;sensor_type;location;lat;lon;timestamp;P1;durP1;ratioP1;P2;durP2;ratioP2
76852;SDS011;65825;52.232;10.566;2023-03-23T00:01:17;3.40;;;1.60;;
76852;SDS011;65825;52.232;10.566;2023-03-23T00:03:47;3.45;;;1.50;;
76852;SDS011;65825;52.232;10.566;2023-03-23T00:06:15;3.58;;;1.50;;
76852;SDS011;65825;52.232;10.566;2023-03-23T00:08:42;4.30;;;1.70;;
76852;SDS011;65825;52.232;10.566;2023-03-23T00:11:12;4.03;;;1.60;;
76852;SDS011;65825;52.232;10.566;2023-03-23T00:13:43;3.42;;;1.60;;
76852;SDS011;65825;52.232;10.566;2023-03-23T00:16:10;3.60;;;1.75;;
76852;SDS011;65825;52.232;10.566;2023-03-23T00:18:54;3.65;;;1.83;;
76852;SDS011;65825;52.232;10.566;2023-03-23T00:21:20;3.78;;;1.50;;
76852;SDS011;65825;52.232;10.566;2023-03-23T00:23:50;4.25;;;1.63;;
76852;SDS011;65825;52.232;10.566;2023-03-23T00:26:16;5.32;;;1.77;;
76852;SDS011;65825;52.232;10.566;2023-03-23T00:28:41;4.17;;;1.60;;
76852;SDS011;65825;52.232;10.566;2023-03-23T00:31:07;3.00;;;1.40;;
76852;SDS011;65825;52.232;10.566;2023-03-23T00:33:35;3.58;;;1.60;;
76852;SDS011;65825;52.232;10.566;2023-03-23T00:36:05;4.05;;;1.67;;
76852;SDS011;65825;52.232;10.566;2023-03-23T00:38:33;4.45;;;1.63;;
76852;SDS011;65825;52.232;10.566;2023-03-23T00:40:59;4.15;;;1.60;;
76852;SDS011;65825;52.232;10.566;2023-03-23T00:43:27;2.85;;;1.63;;
76852;SDS011;65825;52.232;10.566;2023-03-23T00:48:19;3.80;;;1.75;;
76852;SDS011;65825;52.232;10.566;2023-03-23T00:50:45;4.97;;;1.70;;
76852;SDS011;65825;52.232;10.566;2023-03-23T00:53:11;4.07;;;1.77;;
76852;SDS011;65825;52.232;10.566;2023-03-23T00:55:36;3.27;;;1.70;;
76852;SDS011;65825;52.232;10.566;2023-03-23T00:58:02;3.90;;;1.90;;
76852;SDS011;65825;52.232;10.566;2023-03-23T01:00:29;3.47;;;1.77;;
76852;SDS011;65825;52.232;10.566;2023-03-23T01:02:55;2.93;;;1.60;;
76852;SDS011;65825;52.232;10.566;2023-03-23T01:05:20;4.10;;;1.80;;
76852;SDS011;65825;52.232;10.566;2023-03-23T01:07:46;5.28;;;1.63;;
76852;SDS011;65825;52.232;10.566;2023-03-23T01:10:12;3.90;;;1.45;;
76852;SDS011;65825;52.232;10.566;2023-03-23T01:12:41;3.03;;;1.60;;
76852;SDS011;65825;52.232;10.566;2023-03-23T01:15:14;4.07;;;1.63;;
76852;SDS011;65825;52.232;10.566;2023-03-23T01:17:41;3.03;;;1.58;;
76852;SDS011;65825;52.232;10.566;2023-03-23T01:20:07;2.90;;;1.60;;
76852;SDS011;65825;52.232;10.566;2023-03-23T01:22:32;4.25;;;1.83;;
76852;SDS011;65825;52.232;10.566;2023-03-23T01:24:58;4.50;;;1.73;;
76852;SDS011;65825;52.232;10.566;2023-03-23T01:27:23;3.53;;;1.90;;
76852;SDS011;65825;52.232;10.566;2023-03-23T01:29:51;5.68;;;1.80;;
76852;SDS011;65825;52.232;10.566;2023-03-23T01:32:16;6.65;;;2.15;;
76852;SDS011;65825;52.232;10.566;2023-03-23T01:34:41;4.90;;;1.80;;
76852;SDS011;65825;52.232;10.566;2023-03-23T01:37:07;3.10;;;1.80;;
76852;SDS011;65825;52.232;10.566;2023-03-23T01:39:32;3.20;;;1.70;;
76852;SDS011;65825;52.232;10.566;2023-03-23T01:41:57;4.40;;;1.70;;
76852;SDS011;65825;52.232;10.566;2023-03-23T01:46:48;4.80;;;2.03;;
76852;SDS011;65825;52.232;10.566;2023-03-23T01:49:18;3.77;;;1.93;;
76852;SDS011;65825;52.232;10.566;2023-03-23T01:51:48;8.98;;;2.53;;
76852;SDS011;65825;52.232;10.566;2023-03-23T01:54:18;7.30;;;2.60;;
76852;SDS011;65825;52.232;10.566;2023-03-23T01:56:50;6.00;;;2.20;;
76852;SDS011;65825;52.232;10.566;2023-03-23T01:59:20;5.80;;;2.63;;
76852;SDS011;65825;52.232;10.566;2023-03-23T02:01:48;5.88;;;2.70;;
76852;SDS011;65825;52.232;10.566;2023-03-23T02:04:17;4.97;;;1.98;;
76852;SDS011;65825;52.232;10.566;2023-03-23T02:06:43;3.67;;;1.92;;
76852;SDS011;65825;52.232;10.566;2023-03-23T02:09:09;5.75;;;1.70;;
76852;SDS011;65825;52.232;10.566;2023-03-23T02:11:38;5.20;;;1.88;;
76852;SDS011;65825;52.232;10.566;2023-03-23T02:14:04;5.45;;;1.70;;
76852;SDS011;65825;52.232;10.566;2023-03-23T02:34:21;3.40;;;1.63;;
76852;SDS011;65825;52.232;10.566;2023-03-23T02:39:14;3.37;;;2.00;;
76852;SDS011;65825;52.232;10.566;2023-03-23T02:41:55;4.80;;;1.85;;
76852;SDS011;65825;52.232;10.566;2023-03-23T02:44:26;3.67;;;1.58;;
76852;SDS011;65825;52.232;10.566;2023-03-23T02:46:55;6.18;;;2.05;;
76852;SDS011;65825;52.232;10.566;2023-03-23T02:49:22;4.18;;;1.85;;
76852;SDS011;65825;52.232;10.566;2023-03-23T02:51:50;5.15;;;2.10;;
76852;SDS011;65825;52.232;10.566;2023-03-23T02:54:17;6.18;;;1.80;;
76852;SDS011;65825;52.232;10.566;2023-03-23T02:56:45;4.05;;;1.98;;
76852;SDS011;65825;52.232;10.566;2023-03-23T02:59:11;5.50;;;2.35;;
76852;SDS011;65825;52.232;10.566;2023-03-23T03:04:03;8.23;;;2.42;;
76852;SDS011;65825;52.232;10.566;2023-03-23T03:09:09;8.20;;;2.40;;
76852;SDS011;65825;52.232;10.566;2023-03-23T03:12:03;7.85;;;2.70;;
76852;SDS011;65825;52.232;10.566;2023-03-23T03:14:37;6.30;;;2.70;;
76852;SDS011;65825;52.232;10.566;2023-03-23T03:17:11;9.95;;;3.00;;
76852;SDS011;65825;52.232;10.566;2023-03-23T03:19:45;8.30;;;2.90;;
76852;SDS011;65825;52.232;10.566;2023-03-23T03:22:14;7.45;;;2.95;;
76852;SDS011;65825;52.232;10.566;2023-03-23T03:24:40;5.75;;;2.70;;
76852;SDS011;65825;52.232;10.566;2023-03-23T03:27:10;9.20;;;3.13;;
76852;SDS011;65825;52.232;10.566;2023-03-23T03:29:40;6.80;;;2.90;;
76852;SDS011;65825;52.232;10.566;2023-03-23T03:32:07;5.68;;;2.38;;
76852;SDS011;65825;52.232;10.566;2023-03-23T03:34:36;6.07;;;2.75;;
76852;SDS011;65825;52.232;10.566;2023-03-23T03:37:04;6.35;;;2.60;;
76852;SDS011;65825;52.232;10.566;2023-03-23T03:39:31;6.47;;;2.38;;
76852;SDS011;65825;52.232;10.566;2023-03-23T03:41:59;6.25;;;2.15;;
76852;SDS011;65825;52.232;10.566;2023-03-23T03:44:25;5.63;;;2.40;;
76852;SDS011;65825;52.232;10.566;2023-03-23T03:46:50;4.90;;;2.60;;
76852;SDS011;65825;52.232;10.566;2023-03-23T03:49:15;4.53;;;2.10;;
76852;SDS011;65825;52.232;10.566;2023-03-23T03:51:41;4.13;;;2.00;;
76852;SDS011;65825;52.232;10.566;2023-03-23T03:54:06;3.65;;;2.05;;
76852;SDS011;65825;52.232;10.566;2023-03-23T03:56:32;4.55;;;2.45;;
76852;SDS011;65825;52.232;10.566;2023-03-23T03:59:01;5.72;;;2.10;;
76852;SDS011;65825;52.232;10.566;2023-03-23T04:01:26;7.07;;;1.92;;
76852;SDS011;65825;52.232;10.566;2023-03-23T04:03:53;4.72;;;2.20;;
76852;SDS011;65825;52.232;10.566;2023-03-23T04:06:19;5.88;;;2.25;;
76852;SDS011;65825;52.232;10.566;2023-03-23T04:08:45;4.28;;;1.88;;
76852;SDS011;65825;52.232;10.566;2023-03-23T04:11:11;3.85;;;2.08;;
76852;SDS011;65825;52.232;10.566;2023-03-23T04:13:38;4.57;;;2.10;;
76852;SDS011;65825;52.232;10.566;2023-03-23T04:16:04;3.55;;;2.00;;
76852;SDS011;65825;52.232;10.566;2023-03-23T04:18:30;6.50;;;2.20;;
76852;SDS011;65825;52.232;10.566;2023-03-23T04:20:59;5.70;;;2.40;;
76852;SDS011;65825;52.232;10.566;2023-03-23T04:23:27;5.70;;;2.00;;
76852;SDS011;65825;52.232;10.566;2023-03-23T04:25:55;4.55;;;1.80;;
76852;SDS011;65825;52.232;10.566;2023-03-23T04:28:22;4.63;;;2.20;;
76852;SDS011;65825;52.232;10.566;2023-03-23T04:30:50;5.90;;;2.28;;
76852;SDS011;65825;52.232;10.566;2023-03-23T04:33:19;3.92;;;2.00;;
76852;SDS011;65825;52.232;10.566;2023-03-23T04:35:47;4.68;;;2.20;;
76852;SDS011;65825;52.232;10.566;2023-03-23T04:38:14;4.25;;;1.85;;
76852;SDS011;65825;52.232;10.566;2023-03-23T04:40:41;6.15;;;2.33;;
76852;SDS011;65825;52.232;10.566;2023-03-23T04:43:08;7.07;;;2.05;;
76852;SDS011;65825;52.232;10.566;2023-03-23T04:45:34;5.03;;;1.98;;
76852;SDS011;65825;52.232;10.566;2023-03-23T04:48:02;3.83;;;1.92;;
76852;SDS011;65825;52.232;10.566;2023-03-23T04:50:30;3.13;;;1.73;;
76852;SDS011;65825;52.232;10.566;2023-03-23T04:52:58;7.93;;;1.90;;
76852;SDS011;65825;52.232;10.566;2023-03-23T04:55:28;4.72;;;1.92;;
76852;SDS011;65825;52.232;10.566;2023-03-23T04:57:54;5.85;;;2.20;;
76852;SDS011;65825;52.232;10.566;2023-03-23T05:00:21;4.65;;;2.10;;
76852;SDS011;65825;52.232;10.566;2023-03-23T05:02:46;5.50;;;2.08;;
76852;SDS011;65825;52.232;10.566;2023-03-23T05:05:16;6.72;;;2.22;;
76852;SDS011;65825;52.232;10.566;2023-03-23T05:07:42;4.95;;;2.00;;
76852;SDS011;65825;52.232;10.566;2023-03-23T05:10:08;4.68;;;2.30;;
76852;SDS011;65825;52.232;10.566;2023-03-23T05:12:36;6.95;;;2.30;;
76852;SDS011;65825;52.232;10.566;2023-03-23T05:15:02;3.92;;;2.05;;
76852;SDS011;65825;52.232;10.566;2023-03-23T05:17:28;5.05;;;2.28;;
76852;SDS011;65825;52.232;10.566;2023-03-23T05:19:55;5.00;;;2.25;;
76852;SDS011;65825;52.232;10.566;2023-03-23T05:24:47;7.53;;;2.10;;
76852;SDS011;65825;52.232;10.566;2023-03-23T05:27:13;3.50;;;1.80;;
76852;SDS011;65825;52.232;10.566;2023-03-23T05:29:40;3.97;;;2.15;;
76852;SDS011;65825;52.232;10.566;2023-03-23T05:32:06;3.40;;;1.98;;
76852;SDS011;65825;52.232;10.566;2023-03-23T05:34:33;3.30;;;2.03;;
76852;SDS011;65825;52.232;10.566;2023-03-23T05:39:25;3.33;;;1.92;;
76852;SDS011;65825;52.232;10.566;2023-03-23T05:41:51;4.38;;;1.90;;
76852;SDS011;65825;52.232;10.566;2023-03-23T05:44:16;3.85;;;1.70;;
76852;SDS011;65825;52.232;10.566;2023-03-23T05:46:41;3.40;;;1.80;;
76852;SDS011;65825;52.232;10.566;2023-03-23T05:49:08;3.17;;;1.83;;
76852;SDS011;65825;52.232;10.566;2023-03-23T05:51:33;4.13;;;1.98;;
76852;SDS011;65825;52.232;10.566;2023-03-23T05:53:59;4.50;;;2.00;;
76852;SDS011;65825;52.232;10.566;2023-03-23T05:56:25;2.70;;;1.55;;
76852;SDS011;65825;52.232;10.566;2023-03-23T05:58:51;3.95;;;1.90;;
76852;SDS011;65825;52.232;10.566;2023-03-23T06:01:17;3.65;;;1.85;;
76852;SDS011;65825;52.232;10.566;2023-03-23T06:03:42;3.72;;;1.75;;
76852;SDS011;65825;52.232;10.566;2023-03-23T06:06:11;4.85;;;2.00;;
76852;SDS011;65825;52.232;10.566;2023-03-23T06:08:36;3.78;;;1.58;;
76852;SDS011;65825;52.232;10.566;2023-03-23T06:11:02;4.70;;;1.80;;
76852;SDS011;65825;52.232;10.566;2023-03-23T06:13:27;4.82;;;1.65;;
76852;SDS011;65825;52.232;10.566;2023-03-23T06:15:56;5.37;;;1.63;;
76852;SDS011;65825;52.232;10.566;2023-03-23T06:18:22;2.80;;;1.58;;
76852;SDS011;65825;52.232;10.566;2023-03-23T06:20:48;3.58;;;1.52;;
76852;SDS011;65825;52.232;10.566;2023-03-23T06:23:13;2.65;;;1.60;;
76852;SDS011;65825;52.232;10.566;2023-03-23T06:25:39;2.93;;;1.60;;
76852;SDS011;65825;52.232;10.566;2023-03-23T06:28:04;3.30;;;1.77;;
76852;SDS011;65825;52.232;10.566;2023-03-23T06:30:30;3.38;;;1.65;;
76852;SDS011;65825;52.232;10.566;2023-03-23T06:32:56;4.43;;;1.65;;
76852;SDS011;65825;52.232;10.566;2023-03-23T06:35:21;5.15;;;1.85;;
76852;SDS011;65825;52.232;10.566;2023-03-23T06:37:47;4.87;;;2.00;;
76852;SDS011;65825;52.232;10.566;2023-03-23T06:40:12;7.25;;;3.30;;
76852;SDS011;65825;52.232;10.566;2023-03-23T06:42:37;6.55;;;2.85;;
76852;SDS011;65825;52.232;10.566;2023-03-23T06:45:04;9.23;;;4.30;;
76852;SDS011;65825;52.232;10.566;2023-03-23T06:47:30;7.43;;;2.70;;
76852;SDS011;65825;52.232;10.566;2023-03-23T06:49:56;7.40;;;3.30;;
76852;SDS011;65825;52.232;10.566;2023-03-23T06:54:48;5.88;;;3.00;;
76852;SDS011;65825;52.232;10.566;2023-03-23T06:57:14;4.32;;;2.60;;
76852;SDS011;65825;52.232;10.566;2023-03-23T06:59:39;4.00;;;1.90;;
76852;SDS011;65825;52.232;10.566;2023-03-23T07:02:05;4.00;;;1.80;;
76852;SDS011;65825;52.232;10.566;2023-03-23T07:06:57;2.70;;;1.80;;
76852;SDS011;65825;52.232;10.566;2023-03-23T07:09:22;4.47;;;2.78;;
76852;SDS011;65825;52.232;10.566;2023-03-23T07:11:48;4.45;;;2.00;;
76852;SDS011;65825;52.232;10.566;2023-03-23T07:14:15;4.38;;;2.17;;
76852;SDS011;65825;52.232;10.566;2023-03-23T07:16:41;3.38;;;1.90;;
76852;SDS011;65825;52.232;10.566;2023-03-23T07:19:07;4.80;;;2.10;;
76852;SDS011;65825;52.232;10.566;2023-03-23T07:21:32;3.40;;;1.70;;
76852;SDS011;65825;52.232;10.566;2023-03-23T07:23:57;3.63;;;2.10;;
76852;SDS011;65825;52.232;10.566;2023-03-23T07:26:23;4.30;;;1.97;;
76852;SDS011;65825;52.232;10.566;2023-03-23T07:28:48;5.73;;;2.30;;
76852;SDS011;65825;52.232;10.566;2023-03-23T07:31:13;2.80;;;1.70;;
76852;SDS011;65825;52.232;10.566;2023-03-23T07:33:38;3.30;;;1.80;;
76852;SDS011;65825;52.232;10.566;2023-03-23T07:36:04;4.30;;;2.15;;
76852;SDS011;65825;52.232;10.566;2023-03-23T07:38:31;3.15;;;1.80;;
76852;SDS011;65825;52.232;10.566;2023-03-23T07:40:56;2.55;;;1.65;;
76852;SDS011;65825;52.232;10.566;2023-03-23T07:43:22;4.10;;;1.80;;
76852;SDS011;65825;52.232;10.566;2023-03-23T07:45:48;4.50;;;2.00;;
76852;SDS011;65825;52.232;10.566;2023-03-23T07:48:13;3.40;;;1.83;;
76852;SDS011;65825;52.232;10.566;2023-03-23T07:50:39;2.80;;;1.70;;
76852;SDS011;65825;52.232;10.566;2023-03-23T07:53:05;3.20;;;1.88;;
76852;SDS011;65825;52.232;10.566;2023-03-23T07:55:30;3.30;;;1.70;;
76852;SDS011;65825;52.232;10.566;2023-03-23T07:57:56;3.67;;;1.73;;
76852;SDS011;65825;52.232;10.566;2023-03-23T08:00:22;4.43;;;2.08;;
76852;SDS011;65825;52.232;10.566;2023-03-23T08:02:55;4.15;;;1.90;;
76852;SDS011;65825;52.232;10.566;2023-03-23T08:05:22;6.07;;;1.88;;
76852;SDS011;65825;52.232;10.566;2023-03-23T08:07:51;4.10;;;2.00;;
76852;SDS011;65825;52.232;10.566;2023-03-23T08:10:18;3.88;;;1.90;;
76852;SDS011;65825;52.232;10.566;2023-03-23T08:12:44;4.47;;;2.00;;
76852;SDS011;65825;52.232;10.566;2023-03-23T08:15:10;3.05;;;1.85;;
76852;SDS011;65825;52.232;10.566;2023-03-23T08:17:40;3.25;;;1.80;;
76852;SDS011;65825;52.232;10.566;2023-03-23T08:20:06;4.28;;;1.80;;
76852;SDS011;65825;52.232;10.566;2023-03-23T08:22:37;3.72;;;2.00;;
76852;SDS011;65825;52.232;10.566;2023-03-23T08:25:06;5.63;;;1.88;;
76852;SDS011;65825;52.232;10.566;2023-03-23T08:27:33;5.50;;;1.92;;
76852;SDS011;65825;52.232;10.566;2023-03-23T08:29:59;3.85;;;1.90;;
76852;SDS011;65825;52.232;10.566;2023-03-23T08:32:24;5.72;;;1.90;;
76852;SDS011;65825;52.232;10.566;2023-03-23T08:34:50;4.30;;;2.00;;
76852;SDS011;65825;52.232;10.566;2023-03-23T08:37:16;3.35;;;2.00;;
76852;SDS011;65825;52.232;10.566;2023-03-23T08:39:41;4.38;;;2.20;;
76852;SDS011;65825;52.232;10.566;2023-03-23T08:44:33;4.75;;;2.15;;
76852;SDS011;65825;52.232;10.566;2023-03-23T08:46:59;7.43;;;2.38;;
76852;SDS011;65825;52.232;10.566;2023-03-23T08:49:25;6.47;;;2.20;;
76852;SDS011;65825;52.232;10.566;2023-03-23T08:51:51;3.67;;;1.90;;
76852;SDS011;65825;52.232;10.566;2023-03-23T08:54:16;4.85;;;2.20;;
76852;SDS011;65825;52.232;10.566;2023-03-23T08:56:42;4.63;;;2.10;;
76852;SDS011;65825;52.232;10.566;2023-03-23T08:59:08;9.18;;;2.53;;
76852;SDS011;65825;52.232;10.566;2023-03-23T09:01:34;4.68;;;2.28;;
76852;SDS011;65825;52.232;10.566;2023-03-23T09:03:59;9.20;;;2.28;;
76852;SDS011;65825;52.232;10.566;2023-03-23T09:06:25;4.93;;;2.10;;
76852;SDS011;65825;52.232;10.566;2023-03-23T09:08:50;6.32;;;1.80;;
76852;SDS011;65825;52.232;10.566;2023-03-23T09:11:16;3.97;;;1.95;;
76852;SDS011;65825;52.232;10.566;2023-03-23T09:13:43;7.80;;;2.97;;
76852;SDS011;65825;52.232;10.566;2023-03-23T09:16:09;9.18;;;3.13;;
76852;SDS011;65825;52.232;10.566;2023-03-23T09:18:35;8.50;;;2.70;;
76852;SDS011;65825;52.232;10.566;2023-03-23T09:21:01;6.95;;;2.75;;
76852;SDS011;65825;52.232;10.566;2023-03-23T09:23:28;7.15;;;2.40;;
76852;SDS011;65825;52.232;10.566;2023-03-23T09:25:54;4.50;;;2.42;;
76852;SDS011;65825;52.232;10.566;2023-03-23T09:28:20;3.92;;;2.25;;
76852;SDS011;65825;52.232;10.566;2023-03-23T09:30:45;6.00;;;2.45;;
76852;SDS011;65825;52.232;10.566;2023-03-23T09:33:12;5.72;;;2.05;;
76852;SDS011;65825;52.232;10.566;2023-03-23T09:35:38;4.90;;;2.20;;
76852;SDS011;65825;52.232;10.566;2023-03-23T09:38:04;10.25;;;2.42;;
76852;SDS011;65825;52.232;10.566;2023-03-23T09:40:33;5.63;;;2.30;;
76852;SDS011;65825;52.232;10.566;2023-03-23T09:43:20;7.13;;;2.30;;
76852;SDS011;65825;52.232;10.566;2023-03-23T09:49:03;10.30;;;2.47;;
76852;SDS011;65825;52.232;10.566;2023-03-23T09:54:16;7.45;;;2.80;;
76852;SDS011;65825;52.232;10.566;2023-03-23T09:56:52;5.10;;;2.45;;
76852;SDS011;65825;52.232;10.566;2023-03-23T10:04:46;5.10;;;2.28;;
76852;SDS011;65825;52.232;10.566;2023-03-23T10:07:15;6.80;;;2.33;;
76852;SDS011;65825;52.232;10.566;2023-03-23T10:09:43;8.30;;;2.58;;
76852;SDS011;65825;52.232;10.566;2023-03-23T10:15:26;8.70;;;2.92;;
76852;SDS011;65825;52.232;10.566;2023-03-23T10:17:57;5.80;;;2.55;;
76852;SDS011;65825;52.232;10.566;2023-03-23T10:20:35;8.95;;;2.65;;
76852;SDS011;65825;52.232;10.566;2023-03-23T10:25:48;5.45;;;2.70;;
76852;SDS011;65825;52.232;10.566;2023-03-23T10:28:20;7.57;;;3.75;;
76852;SDS011;65825;52.232;10.566;2023-03-23T10:30:50;8.00;;;3.50;;
76852;SDS011;65825;52.232;10.566;2023-03-23T10:33:34;5.70;;;2.33;;
76852;SDS011;65825;52.232;10.566;2023-03-23T10:36:10;6.30;;;2.45;;
76852;SDS011;65825;52.232;10.566;2023-03-23T10:39:13;5.60;;;2.50;;
76852;SDS011;65825;52.232;10.566;2023-03-23T10:41:43;9.45;;;2.60;;
76852;SDS011;65825;52.232;10.566;2023-03-23T10:44:13;9.75;;;2.25;;
76852;SDS011;65825;52.232;10.566;2023-03-23T10:46:51;7.55;;;2.35;;
76852;SDS011;65825;52.232;10.566;2023-03-23T10:49:24;4.97;;;1.98;;
76852;SDS011;65825;52.232;10.566;2023-03-23T10:51:59;7.57;;;2.60;;
76852;SDS011;65825;52.232;10.566;2023-03-23T10:54:37;7.68;;;2.17;;
76852;SDS011;65825;52.232;10.566;2023-03-23T11:02:43;8.75;;;2.10;;
76852;SDS011;65825;52.232;10.566;2023-03-23T11:05:23;9.63;;;2.00;;
76852;SDS011;65825;52.232;10.566;2023-03-23T11:07:54;5.53;;;2.10;;
76852;SDS011;65825;52.232;10.566;2023-03-23T11:13:13;4.72;;;2.10;;
76852;SDS011;65825;52.232;10.566;2023-03-23T11:15:41;4.38;;;1.83;;
76852;SDS011;65825;52.232;10.566;2023-03-23T11:18:11;4.72;;;2.22;;
76852;SDS011;65825;52.232;10.566;2023-03-23T11:20:39;8.55;;;2.00;;
76852;SDS011;65825;52.232;10.566;2023-03-23T11:23:27;8.18;;;2.35;;
76852;SDS011;65825;52.232;10.566;2023-03-23T11:28:20;7.22;;;1.98;;
76852;SDS011;65825;52.232;10.566;2023-03-23T11:30:46;8.02;;;2.83;;
76852;SDS011;65825;52.232;10.566;2023-03-23T11:33:13;5.53;;;1.83;;
76852;SDS011;65825;52.232;10.566;2023-03-23T11:35:43;5.30;;;2.22;;
76852;SDS011;65825;52.232;10.566;2023-03-23T11:38:16;9.10;;;2.30;;
76852;SDS011;65825;52.232;10.566;2023-03-23T11:40:52;8.80;;;2.30;;
76852;SDS011;65825;52.232;10.566;2023-03-23T11:43:24;8.18;;;2.40;;
76852;SDS011;65825;52.232;10.566;2023-03-23T11:46:05;5.00;;;2.00;;
76852;SDS011;65825;52.232;10.566;2023-03-23T11:48:45;4.75;;;2.15;;
76852;SDS011;65825;52.232;10.566;2023-03-23T11:51:49;7.68;;;2.40;;
76852;SDS011;65825;52.232;10.566;2023-03-23T11:59:38;6.47;;;2.60;;
76852;SDS011;65825;52.232;10.566;2023-03-23T12:04:46;10.48;;;2.92;;
76852;SDS011;65825;52.232;10.566;2023-03-23T12:26:46;4.93;;;2.17;;
76852;SDS011;65825;52.232;10.566;2023-03-23T12:29:26;6.68;;;2.10;;
76852;SDS011;65825;52.232;10.566;2023-03-23T12:37:52;5.85;;;2.50;;
76852;SDS011;65825;52.232;10.566;2023-03-23T12:43:13;5.65;;;1.90;;
76852;SDS011;65825;52.232;10.566;2023-03-23T12:45:59;5.57;;;2.25;;
76852;SDS011;65825;52.232;10.566;2023-03-23T12:48:37;5.40;;;2.00;;
76852;SDS011;65825;52.232;10.566;2023-03-23T12:51:17;8.05;;;2.20;;
76852;SDS011;65825;52.232;10.566;2023-03-23T12:53:47;6.70;;;1.90;;
76852;SDS011;65825;52.232;10.566;2023-03-23T12:56:36;9.88;;;2.22;;
76852;SDS011;65825;52.232;10.566;2023-03-23T13:02:13;7.05;;;2.05;;
76852;SDS011;65825;52.232;10.566;2023-03-23T13:04:47;6.57;;;2.25;;
76852;SDS011;65825;52.232;10.566;2023-03-23T13:07:23;5.78;;;1.80;;
76852;SDS011;65825;52.232;10.566;2023-03-23T13:12:23;4.60;;;1.80;;
76852;SDS011;65825;52.232;10.566;2023-03-23T13:14:56;7.25;;;2.10;;
76852;SDS011;65825;52.232;10.566;2023-03-23T13:17:42;5.38;;;1.80;;
76852;SDS011;65825;52.232;10.566;2023-03-23T13:28:18;6.63;;;2.00;;
76852;SDS011;65825;52.232;10.566;2023-03-23T13:31:00;6.28;;;1.88;;
76852;SDS011;65825;52.232;10.566;2023-03-23T13:33:29;9.85;;;2.90;;
76852;SDS011;65825;52.232;10.566;2023-03-23T13:35:56;5.25;;;1.92;;
76852;SDS011;65825;52.232;10.566;2023-03-23T13:38:31;6.05;;;1.70;;
76852;SDS011;65825;52.232;10.566;2023-03-23T13:40:57;5.47;;;1.70;;
76852;SDS011;65825;52.232;10.566;2023-03-23T13:43:32;4.60;;;1.70;;
76852;SDS011;65825;52.232;10.566;2023-03-23T13:48:44;5.05;;;1.50;;
76852;SDS011;65825;52.232;10.566;2023-03-23T13:56:42;4.38;;;1.80;;
76852;SDS011;65825;52.232;10.566;2023-03-23T14:01:53;4.90;;;2.13;;
76852;SDS011;65825;52.232;10.566;2023-03-23T14:04:20;6.30;;;2.08;;
76852;SDS011;65825;52.232;10.566;2023-03-23T14:06:48;3.78;;;2.00;;
76852;SDS011;65825;52.232;10.566;2023-03-23T14:09:16;3.88;;;1.60;;
76852;SDS011;65825;52.232;10.566;2023-03-23T14:11:58;4.72;;;1.42;;
76852;SDS011;65825;52.232;10.566;2023-03-23T14:14:42;2.90;;;1.10;;
76852;SDS011;65825;52.232;10.566;2023-03-23T14:17:23;3.13;;;1.50;;
76852;SDS011;65825;52.232;10.566;2023-03-23T14:19:51;5.25;;;1.40;;
76852;SDS011;65825;52.232;10.566;2023-03-23T14:22:22;4.78;;;1.40;;
76852;SDS011;65825;52.232;10.566;2023-03-23T14:27:42;5.80;;;1.30;;
76852;SDS011;65825;52.232;10.566;2023-03-23T14:32:37;2.10;;;1.20;;
76852;SDS011;65825;52.232;10.566;2023-03-23T14:35:12;3.72;;;1.42;;
76852;SDS011;65825;52.232;10.566;2023-03-23T14:37:42;3.60;;;1.50;;
76852;SDS011;65825;52.232;10.566;2023-03-23T14:40:11;2.53;;;1.30;;
76852;SDS011;65825;52.232;10.566;2023-03-23T14:42:39;4.53;;;1.25;;
76852;SDS011;65825;52.232;10.566;2023-03-23T14:45:05;3.53;;;1.20;;
76852;SDS011;65825;52.232;10.566;2023-03-23T14:47:35;2.65;;;1.30;;
76852;SDS011;65825;52.232;10.566;2023-03-23T14:50:04;4.18;;;1.50;;
76852;SDS011;65825;52.232;10.566;2023-03-23T14:52:35;5.60;;;1.90;;
76852;SDS011;65825;52.232;10.566;2023-03-23T14:55:15;3.55;;;1.25;;
76852;SDS011;65825;52.232;10.566;2023-03-23T14:57:43;3.20;;;1.40;;
76852;SDS011;65825;52.232;10.566;2023-03-23T15:00:32;3.53;;;1.48;;
76852;SDS011;65825;52.232;10.566;2023-03-23T15:02:58;4.22;;;1.58;;
76852;SDS011;65825;52.232;10.566;2023-03-23T15:05:27;3.40;;;1.33;;
76852;SDS011;65825;52.232;10.566;2023-03-23T15:07:58;3.83;;;1.30;;
76852;SDS011;65825;52.232;10.566;2023-03-23T15:10:28;4.78;;;1.70;;
76852;SDS011;65825;52.232;10.566;2023-03-23T15:12:54;5.47;;;2.20;;
76852;SDS011;65825;52.232;10.566;2023-03-23T15:17:53;3.13;;;1.48;;
76852;SDS011;65825;52.232;10.566;2023-03-23T15:22:45;2.97;;;1.50;;
76852;SDS011;65825;52.232;10.566;2023-03-23T15:25:17;5.40;;;1.73;;
76852;SDS011;65825;52.232;10.566;2023-03-23T15:27:52;4.30;;;1.85;;
76852;SDS011;65825;52.232;10.566;2023-03-23T15:32:51;3.72;;;1.83;;
76852;SDS011;65825;52.232;10.566;2023-03-23T15:35:23;4.47;;;2.40;;
76852;SDS011;65825;52.232;10.566;2023-03-23T15:38:00;6.63;;;1.95;;
76852;SDS011;65825;52.232;10.566;2023-03-23T15:40:32;4.05;;;1.80;;
76852;SDS011;65825;52.232;10.566;2023-03-23T15:43:08;4.97;;;1.77;;
76852;SDS011;65825;52.232;10.566;2023-03-23T15:45:58;4.10;;;1.80;;
76852;SDS011;65825;52.232;10.566;2023-03-23T15:48:48;5.38;;;1.83;;
76852;SDS011;65825;52.232;10.566;2023-03-23T15:51:19;4.57;;;1.90;;
76852;SDS011;65825;52.232;10.566;2023-03-23T15:53:45;6.55;;;1.80;;
76852;SDS011;65825;52.232;10.566;2023-03-23T15:56:11;4.97;;;1.80;;
76852;SDS011;65825;52.232;10.566;2023-03-23T15:58:38;4.63;;;1.90;;
76852;SDS011;65825;52.232;10.566;2023-03-23T16:01:05;6.50;;;1.90;;
76852;SDS011;65825;52.232;10.566;2023-03-23T16:03:40;5.13;;;2.15;;
76852;SDS011;65825;52.232;10.566;2023-03-23T16:06:20;4.30;;;2.00;;
76852;SDS011;65825;52.232;10.566;2023-03-23T16:08:46;4.95;;;2.13;;
76852;SDS011;65825;52.232;10.566;2023-03-23T16:11:13;8.57;;;2.55;;
76852;SDS011;65825;52.232;10.566;2023-03-23T16:13:40;3.17;;;2.00;;
76852;SDS011;65825;52.232;10.566;2023-03-23T16:16:06;11.02;;;4.47;;
76852;SDS011;65825;52.232;10.566;2023-03-23T16:18:39;6.15;;;3.15;;
76852;SDS011;65825;52.232;10.566;2023-03-23T16:21:04;5.75;;;2.20;;
76852;SDS011;65825;52.232;10.566;2023-03-23T16:23:30;5.38;;;2.25;;
76852;SDS011;65825;52.232;10.566;2023-03-23T16:25:55;5.60;;;2.07;;
76852;SDS011;65825;52.232;10.566;2023-03-23T16:28:20;5.33;;;1.80;;
76852;SDS011;65825;52.232;10.566;2023-03-23T16:30:46;4.07;;;2.00;;
76852;SDS011;65825;52.232;10.566;2023-03-23T16:33:11;3.33;;;1.85;;
76852;SDS011;65825;52.232;10.566;2023-03-23T16:35:37;3.33;;;2.00;;
76852;SDS011;65825;52.232;10.566;2023-03-23T16:38:03;5.45;;;2.08;;
76852;SDS011;65825;52.232;10.566;2023-03-23T16:40:29;6.80;;;2.78;;
76852;SDS011;65825;52.232;10.566;2023-03-23T16:42:55;10.68;;;2.95;;
76852;SDS011;65825;52.232;10.566;2023-03-23T16:45:21;5.53;;;2.30;;
76852;SDS011;65825;52.232;10.566;2023-03-23T16:47:47;7.00;;;2.60;;
76852;SDS011;65825;52.232;10.566;2023-03-23T16:50:14;5.85;;;2.33;;
76852;SDS011;65825;52.232;10.566;2023-03-23T16:52:41;6.28;;;2.70;;
76852;SDS011;65825;52.232;10.566;2023-03-23T16:55:09;6.45;;;2.47;;
76852;SDS011;65825;52.232;10.566;2023-03-23T16:57:36;6.28;;;2.88;;
76852;SDS011;65825;52.232;10.566;2023-03-23T17:02:30;10.50;;;4.72;;
76852;SDS011;65825;52.232;10.566;2023-03-23T17:04:56;6.18;;;2.75;;
76852;SDS011;65825;52.232;10.566;2023-03-23T17:07:22;7.28;;;2.97;;
76852;SDS011;65825;52.232;10.566;2023-03-23T17:09:47;5.65;;;3.22;;